Time;durP1;ratioP1;P1;durP2;ratioP2;P2;SDS_P1;SDS_P2;PMS_P1;PMS_P2;Temp;Humidity;BMP_temperature;BMP_pressure;BME280_temperature;BME280_humidity;BME280_pressure;Samples;Min_cycle;Max_cycle;Signal;HPM_P1;HPM_P2
2022/11/27 00:00:59;;;;;;;8.57;7.63;;;;;;;2.03;100.00;97566.63;5050275;28;20520;-70
2022/11/27 00:03:26;;;;;;;8.27;7.53;;;;;;;2.02;100.00;97565.84;5044540;28;21028;-70
2022/11/27 00:05:55;;;;;;;9.23;8.07;;;;;;;1.98;100.00;97561.34;5047865;28;20539;-70
2022/11/27 00:08:24;;;;;;;9.63;8.73;;;;;;;2.00;100.00;97554.06;5033307;28;20836;-70
2022/11/27 00:10:51;;;;;;;13.67;8.17;;;;;;;1.81;100.00;97526.69;5039669;28;20487;-70
2022/11/27 00:13:17;;;;;;;10.17;8.17;;;;;;;1.96;100.00;97545.94;5043550;28;20870;-70
2022/11/27 00:15:44;;;;;;;11.37;9.57;;;;;;;1.66;100.00;97496.00;5051279;28;21100;-70
2022/11/27 00:18:11;;;;;;;13.23;8.77;;;;;;;1.84;100.00;97527.00;5033393;28;20422;-69
2022/11/27 00:20:38;;;;;;;10.73;7.93;;;;;;;1.80;100.00;97538.16;5029930;28;20821;-69
2022/11/27 00:23:05;;;;;;;12.33;8.20;;;;;;;1.58;100.00;97497.16;5032938;28;20495;-70
2022/11/27 00:25:32;;;;;;;11.23;8.57;;;;;;;1.54;100.00;97503.09;5036132;28;20528;-70
2022/11/27 00:27:58;;;;;;;8.80;7.87;;;;;;;1.46;100.00;97528.53;5051495;28;20429;-70
2022/11/27 00:30:25;;;;;;;8.87;7.70;;;;;;;1.29;100.00;97486.06;5036730;28;20445;-69
2022/11/27 00:32:51;;;;;;;10.70;9.10;;;;;;;1.36;100.00;97470.28;5025231;28;20525;-70
2022/11/27 00:35:18;;;;;;;10.70;8.90;;;;;;;1.40;100.00;97492.22;5047445;28;20454;-70
2022/11/27 00:37:45;;;;;;;11.30;9.03;;;;;;;1.43;100.00;97515.97;5045538;28;20436;-70
2022/11/27 00:40:12;;;;;;;9.37;8.17;;;;;;;1.38;100.00;97484.66;5040371;28;20476;-69
2022/11/27 00:42:38;;;;;;;9.67;7.80;;;;;;;1.39;100.00;97490.66;5042414;28;20437;-69
2022/11/27 00:45:06;;;;;;;9.83;8.00;;;;;;;1.38;100.00;97494.28;5016215;28;20466;-69
2022/11/27 00:47:33;;;;;;;11.07;8.50;;;;;;;1.58;100.00;97504.19;5015944;28;20431;-70
2022/11/27 00:49:59;;;;;;;8.93;8.03;;;;;;;1.62;100.00;97513.16;5038560;28;20560;-70
2022/11/27 00:52:26;;;;;;;7.60;6.80;;;;;;;1.55;100.00;97499.47;5040865;28;20442;-69
2022/11/27 00:54:53;;;;;;;8.73;6.70;;;;;;;1.80;100.00;97514.69;5034404;28;20437;-70
2022/11/27 00:57:19;;;;;;;7.57;6.90;;;;;;;1.57;100.00;97485.16;5041846;28;20426;-70
2022/11/27 00:59:46;;;;;;;7.27;6.63;;;;;;;1.68;100.00;97512.16;5046874;28;20454;-70
2022/11/27 01:02:13;;;;;;;7.10;6.03;;;;;;;1.65;100.00;97499.63;5027866;28;20949;-70
2022/11/27 01:04:39;;;;;;;9.17;6.40;;;;;;;1.47;100.00;97492.88;5035585;28;20461;-70
2022/11/27 01:07:07;;;;;;;7.07;6.47;;;;;;;1.32;100.00;97463.97;5039978;28;20426;-70
2022/11/27 01:09:33;;;;;;;10.13;7.80;;;;;;;1.51;100.00;97473.09;5046997;28;20966;-70
2022/11/27 01:12:00;;;;;;;8.50;7.50;;;;;;;1.53;100.00;97454.63;5032069;28;20877;-70
2022/11/27 01:14:27;;;;;;;12.10;8.87;;;;;;;1.56;100.00;97454.94;5045522;28;20426;-70
2022/11/27 01:16:53;;;;;;;10.40;7.87;;;;;;;1.70;100.00;97481.44;5031898;28;20418;-69
2022/11/27 01:19:20;;;;;;;8.77;7.40;;;;;;;1.69;100.00;97465.00;5037609;28;20818;-69
2022/11/27 01:21:47;;;;;;;10.30;7.90;;;;;;;1.67;100.00;97463.69;5053137;28;20549;-70
2022/11/27 01:24:15;;;;;;;10.00;8.33;;;;;;;1.77;100.00;97474.25;5038148;28;21059;-70
2022/11/27 01:26:42;;;;;;;11.73;6.73;;;;;;;1.58;100.00;97458.06;5039423;28;20529;-70
2022/11/27 01:29:10;;;;;;;12.27;6.70;;;;;;;1.65;100.00;97490.00;5030825;28;20459;-70
2022/11/27 01:31:36;;;;;;;7.77;6.70;;;;;;;1.48;100.00;97461.34;5026099;28;20769;-70
2022/11/27 01:34:08;;;;;;;7.70;6.90;;;;;;;1.45;100.00;97474.06;5022752;28;20533;-70
2022/11/27 01:36:34;;;;;;;7.43;6.70;;;;;;;1.56;100.00;97482.81;5037154;28;20415;-70
2022/11/27 01:39:02;;;;;;;10.03;7.07;;;;;;;1.60;100.00;97489.13;5033316;28;20796;-70
2022/11/27 01:41:33;;;;;;;10.60;6.77;;;;;;;1.69;100.00;97485.06;5034023;28;20768;-70
2022/11/27 01:44:02;;;;;;;8.50;7.07;;;;;;;1.57;100.00;97471.34;5037742;28;20458;-69
2022/11/27 01:46:42;;;;;;;10.30;7.00;;;;;;;1.43;100.00;97453.44;5050694;28;20417;-70
2022/11/27 01:49:09;;;;;;;9.93;7.17;;;;;;;1.66;100.00;97491.56;5039659;28;20488;-69
2022/11/27 01:51:42;;;;;;;11.70;6.83;;;;;;;1.52;100.00;97458.25;5031335;28;20429;-69
2022/11/27 01:54:09;;;;;;;7.40;6.67;;;;;;;1.74;100.00;97495.59;5031459;28;20513;-69
2022/11/27 01:56:39;;;;;;;11.47;7.00;;;;;;;1.71;100.00;97491.63;5032419;28;20464;-69
2022/11/27 01:59:06;;;;;;;8.23;6.93;;;;;;;1.37;100.00;97443.22;5030744;28;20452;-69
2022/11/27 02:01:33;;;;;;;10.93;8.33;;;;;;;1.67;100.00;97477.50;5017719;28;20434;-69
2022/11/27 02:04:00;;;;;;;10.43;7.33;;;;;;;1.74;100.00;97483.34;5044476;28;20514;-69
2022/11/27 02:06:28;;;;;;;9.00;7.43;;;;;;;1.64;100.00;97453.75;5024700;28;20439;-69
2022/11/27 02:08:55;;;;;;;11.13;8.97;;;;;;;1.67;100.00;97469.69;5037117;28;21060;-69
2022/11/27 02:11:49;;;;;;;12.00;9.00;;;;;;;1.61;100.00;97455.00;5031183;28;21312;-69
2022/11/27 02:14:45;;;;;;;14.50;9.70;;;;;;;1.65;100.00;97450.09;5030969;28;20415;-69
2022/11/27 02:17:41;;;;;;;17.97;10.13;;;;;;;1.34;100.00;97415.03;5013746;28;20840;-69
2022/11/27 02:20:35;;;;;;;14.07;9.17;;;;;;;1.46;100.00;97439.16;5043336;28;20540;-69
2022/11/27 02:23:39;;;;;;;11.97;9.70;;;;;;;1.44;100.00;97434.19;5020761;28;20438;-69
2022/11/27 02:26:42;;;;;;;15.00;9.20;;;;;;;1.45;100.00;97433.16;5020606;28;20426;-69
2022/11/27 02:29:15;;;;;;;13.87;9.33;;;;;;;1.21;100.00;97408.34;5005050;28;20465;-69
2022/11/27 02:32:03;;;;;;;13.57;12.27;;;;;;;1.18;100.00;97432.25;5031808;28;20970;-70
2022/11/27 02:34:49;;;;;;;13.77;10.40;;;;;;;1.30;100.00;97424.34;5031851;28;20434;-69
2022/11/27 02:37:41;;;;;;;10.97;9.83;;;;;;;1.23;100.00;97426.34;5021870;28;20436;-69
2022/11/27 02:40:20;;;;;;;13.27;9.87;;;;;;;1.16;100.00;97426.47;5037101;28;20448;-69
2022/11/27 02:42:53;;;;;;;15.60;10.53;;;;;;;1.20;100.00;97424.97;5038882;28;20534;-69
2022/11/27 02:45:30;;;;;;;12.53;9.90;;;;;;;0.93;100.00;97387.59;5017664;28;20484;-69
2022/11/27 02:47:57;;;;;;;13.50;10.47;;;;;;;0.98;100.00;97406.69;5032059;28;20525;-69
2022/11/27 02:50:27;;;;;;;12.23;10.07;;;;;;;0.84;100.00;97395.81;5042556;28;20457;-69
2022/11/27 02:52:59;;;;;;;14.10;10.73;;;;;;;0.95;100.00;97403.78;5030169;28;20950;-69
2022/11/27 02:55:29;;;;;;;13.30;9.93;;;;;;;1.03;100.00;97425.00;5040225;28;20438;-69
2022/11/27 02:57:59;;;;;;;11.77;9.23;;;;;;;1.01;100.00;97423.66;5032547;28;20431;-69
2022/11/27 03:00:28;;;;;;;13.80;10.60;;;;;;;0.81;100.00;97390.31;5041444;28;20464;-69
2022/11/27 03:03:02;;;;;;;12.30;10.03;;;;;;;0.94;100.00;97410.03;5031637;28;20525;-70
2022/11/27 03:05:35;;;;;;;11.40;10.20;;;;;;;0.99;100.00;97413.47;5031929;28;20411;-70
2022/11/27 03:08:09;;;;;;;16.87;11.33;;;;;;;1.01;100.00;97421.06;5022557;28;20430;-69
2022/11/27 03:10:46;;;;;;;11.37;9.10;;;;;;;1.04;100.00;97426.56;5031807;28;20872;-70
2022/11/27 03:13:13;;;;;;;12.83;10.50;;;;;;;0.94;100.00;97423.84;5037738;28;20518;-70
2022/11/27 03:15:56;;;;;;;12.47;9.47;;;;;;;0.94;100.00;97442.06;5042119;28;20425;-69
2022/11/27 03:18:39;;;;;;;12.57;10.60;;;;;;;0.89;100.00;97415.94;5038501;28;20418;-69
2022/11/27 03:21:37;;;;;;;10.57;9.40;;;;;;;1.02;100.00;97433.84;5013566;28;20461;-69
2022/11/27 03:24:08;;;;;;;13.13;10.17;;;;;;;0.86;100.00;97408.59;5031023;28;20450;-69
2022/11/27 03:26:37;;;;;;;12.50;10.17;;;;;;;0.79;100.00;97394.94;5029965;28;20521;-69
2022/11/27 03:29:13;;;;;;;13.57;10.67;;;;;;;0.98;100.00;97427.53;5030889;28;20492;-69
2022/11/27 03:31:40;;;;;;;12.40;10.13;;;;;;;1.01;100.00;97416.63;5031145;28;20906;-69
2022/11/27 03:34:07;;;;;;;14.60;9.60;;;;;;;1.01;100.00;97427.06;5031285;28;20489;-70
2022/11/27 03:36:34;;;;;;;15.07;9.60;;;;;;;0.99;100.00;97423.91;5029798;28;20462;-69
2022/11/27 03:39:01;;;;;;;17.80;10.40;;;;;;;0.91;100.00;97410.47;5039025;28;20449;-69
2022/11/27 03:41:40;;;;;;;13.07;9.60;;;;;;;1.01;100.00;97416.63;5047913;28;20447;-69
2022/11/27 03:44:31;;;;;;;13.83;9.70;;;;;;;0.89;100.00;97419.31;5029601;28;20561;-69
2022/11/27 03:47:14;;;;;;;14.10;10.17;;;;;;;0.99;100.00;97426.50;5016340;28;20434;-69
2022/11/27 03:50:04;;;;;;;30.87;10.73;;;;;;;0.93;100.00;97424.03;5029679;28;20438;-70
2022/11/27 03:52:58;;;;;;;30.13;10.93;;;;;;;0.84;100.00;97427.06;5031098;28;20450;-69
2022/11/27 03:55:36;;;;;;;21.80;11.47;;;;;;;0.85;100.00;97423.44;5035422;28;20446;-69
2022/11/27 03:58:08;;;;;;;13.87;10.37;;;;;;;0.80;100.00;97399.94;5013381;28;20465;-70
2022/11/27 04:00:39;;;;;;;14.17;9.47;;;;;;;0.68;100.00;97372.41;5030830;28;20962;-69
2022/11/27 04:03:10;;;;;;;21.73;11.47;;;;;;;0.83;100.00;97409.88;5034828;28;20945;-70
2022/11/27 04:05:37;;;;;;;13.40;11.00;;;;;;;0.84;100.00;97393.22;5049227;28;20496;-69
2022/11/27 04:08:04;;;;;;;11.53;10.13;;;;;;;0.77;100.00;97365.75;5029915;28;20423;-69
2022/11/27 04:10:31;;;;;;;14.57;11.27;;;;;;;0.72;100.00;97361.28;5042259;28;20457;-69
2022/11/27 04:12:57;;;;;;;16.97;11.40;;;;;;;0.68;100.00;97364.59;5029933;28;20525;-69
2022/11/27 04:15:24;;;;;;;15.40;10.57;;;;;;;0.92;100.00;97399.03;5029478;28;20484;-69
2022/11/27 04:17:51;;;;;;;28.00;12.17;;;;;;;0.89;100.00;97382.88;5012953;28;21049;-69
2022/11/27 04:20:17;;;;;;;17.93;10.40;;;;;;;0.95;100.00;97406.41;5030522;28;20454;-69
2022/11/27 04:22:44;;;;;;;23.73;11.23;;;;;;;0.82;100.00;97399.69;5029808;28;20929;-70
2022/11/27 04:25:10;;;;;;;29.60;11.90;;;;;;;0.74;100.00;97410.47;5029697;28;20548;-70
2022/11/27 04:27:37;;;;;;;32.40;11.40;;;;;;;0.55;100.00;97387.31;5035101;28;20426;-69
2022/11/27 04:30:04;;;;;;;60.90;15.33;;;;;;;0.43;100.00;97365.75;5034166;28;20441;-69
2022/11/27 04:32:31;;;;;;;11.67;9.80;;;;;;;0.40;100.00;97363.63;5046179;28;20934;-70
2022/11/27 04:34:57;;;;;;;88.23;15.47;;;;;;;0.63;100.00;97399.13;5034178;28;20942;-70
2022/11/27 04:37:24;;;;;;;52.60;12.17;;;;;;;0.54;100.00;97385.72;5054180;28;20433;-69
2022/11/27 04:39:54;;;;;;;17.70;10.03;;;;;;;0.45;100.00;97381.13;5053947;28;20544;-69
2022/11/27 04:42:20;;;;;;;15.30;9.60;;;;;;;0.61;100.00;97369.16;5053927;28;20453;-69
2022/11/27 04:44:47;;;;;;;19.73;9.50;;;;;;;0.78;100.00;97399.34;5021117;28;20502;-69
2022/11/27 04:47:14;;;;;;;27.00;9.57;;;;;;;0.64;100.00;97394.69;5041376;28;20436;-70
2022/11/27 04:49:40;;;;;;;34.00;9.87;;;;;;;0.57;100.00;97403.47;5020440;28;20470;-70
2022/11/27 04:52:09;;;;;;;36.67;12.20;;;;;;;0.49;100.00;97374.44;5016198;28;20443;-69
2022/11/27 04:54:36;;;;;;;31.27;11.13;;;;;;;0.69;100.00;97405.22;5016284;28;20522;-69
2022/11/27 04:57:03;;;;;;;32.93;10.00;;;;;;;0.48;100.00;97372.84;5032583;28;20496;-69
2022/11/27 04:59:30;;;;;;;32.17;10.80;;;;;;;0.37;100.00;97361.47;5018830;28;20457;-69
2022/11/27 05:01:57;;;;;;;36.20;11.37;;;;;;;0.39;100.00;97359.44;5052488;28;20428;-69
2022/11/27 05:04:24;;;;;;;69.50;11.47;;;;;;;0.45;100.00;97368.91;5052187;28;20986;-70
2022/11/27 05:06:50;;;;;;;75.43;14.23;;;;;;;0.47;100.00;97385.06;5053532;28;20529;-69
2022/11/27 05:09:17;;;;;;;34.07;12.67;;;;;;;0.31;100.00;97361.66;5045760;28;20458;-69
2022/11/27 05:11:44;;;;;;;22.30;9.37;;;;;;;0.51;100.00;97390.59;5053453;28;20430;-70
2022/11/27 05:14:14;;;;;;;35.80;11.50;;;;;;;0.32;100.00;97392.63;5055697;28;21009;-69
2022/11/27 05:16:41;;;;;;;42.17;9.50;;;;;;;0.02;100.00;97358.28;5032761;28;20542;-69
2022/11/27 05:19:09;;;;;;;16.83;9.47;;;;;;;0.25;100.00;97384.16;5033536;28;20478;-69
2022/11/27 05:21:37;;;;;;;75.33;19.73;;;;;;;-0.15;100.00;97322.63;5032277;28;20500;-69
2022/11/27 05:24:04;;;;;;;29.47;11.93;;;;;;;0.10;100.00;97345.69;5032355;28;20469;-69
2022/11/27 05:26:31;;;;;;;61.17;12.13;;;;;;;0.29;100.00;97356.69;5032150;28;20541;-69
2022/11/27 05:28:58;;;;;;;32.73;11.13;;;;;;;0.37;100.00;97373.69;5033029;28;20461;-69
2022/11/27 05:31:24;;;;;;;33.90;10.90;;;;;;;0.24;100.00;97390.38;5031861;28;20450;-69
2022/11/27 05:33:51;;;;;;;16.30;10.23;;;;;;;0.25;100.00;97391.97;5032716;28;20430;-70
2022/11/27 05:36:18;;;;;;;21.73;10.50;;;;;;;0.27;100.00;97369.94;5043785;28;20566;-69
2022/11/27 05:38:44;;;;;;;22.43;10.00;;;;;;;0.36;100.00;97370.31;5012374;28;20459;-69
2022/11/27 05:41:11;;;;;;;14.80;8.73;;;;;;;0.44;100.00;97395.16;5031675;28;20529;-69
2022/11/27 05:43:38;;;;;;;23.53;9.70;;;;;;;0.13;100.00;97373.81;5012217;28;20437;-69
2022/11/27 05:46:06;;;;;;;43.40;11.40;;;;;;;0.46;100.00;97401.72;5038694;28;20454;-69
2022/11/27 05:48:34;;;;;;;22.73;9.63;;;;;;;0.37;100.00;97392.69;5033117;28;20913;-69
2022/11/27 05:51:01;;;;;;;21.23;10.63;;;;;;;0.31;100.00;97377.25;5028466;28;20959;-70
2022/11/27 05:53:28;;;;;;;21.63;10.30;;;;;;;0.22;100.00;97359.41;5051400;28;20454;-69
2022/11/27 05:56:11;;;;;;;34.50;10.00;;;;;;;0.41;100.00;97373.03;5037565;28;20441;-69
2022/11/27 05:58:39;;;;;;;26.23;10.27;;;;;;;0.51;100.00;97390.59;5038184;28;20940;-69
2022/11/27 06:01:07;;;;;;;103.30;15.90;;;;;;;0.20;100.00;97397.88;5035129;28;20998;-69
2022/11/27 06:03:34;;;;;;;30.13;11.30;;;;;;;0.20;100.00;97378.88;5041050;28;20449;-69
2022/11/27 06:06:09;;;;;;;54.30;14.47;;;;;;;0.18;100.00;97396.53;5035464;28;20511;-69
2022/11/27 06:08:39;;;;;;;48.03;12.73;;;;;;;0.12;100.00;97389.66;5039333;28;20544;-69
2022/11/27 06:11:12;;;;;;;26.50;9.77;;;;;;;0.02;100.00;97387.69;5050217;28;20449;-69
2022/11/27 06:13:39;;;;;;;14.13;8.53;;;;;;;-0.13;100.00;97357.00;5037693;28;20453;-69
2022/11/27 06:16:20;;;;;;;30.13;11.10;;;;;;;0.08;100.00;97376.34;5037900;28;20433;-69
2022/11/27 06:18:49;;;;;;;32.10;11.00;;;;;;;0.08;100.00;97355.53;5035226;28;20845;-69
2022/11/27 06:21:16;;;;;;;17.87;10.27;;;;;;;0.11;100.00;97369.88;5030917;28;20481;-69
2022/11/27 06:23:43;;;;;;;33.57;9.90;;;;;;;0.12;100.00;97376.66;5032385;28;20518;-69
2022/11/27 06:26:10;;;;;;;29.73;10.10;;;;;;;0.09;100.00;97377.13;5031943;28;20457;-69
2022/11/27 06:28:37;;;;;;;16.60;11.03;;;;;;;0.10;100.00;97373.50;5030671;28;20463;-69
2022/11/27 06:31:05;;;;;;;20.27;9.63;;;;;;;-0.10;100.00;97340.94;5030747;28;21057;-69
2022/11/27 06:33:32;;;;;;;31.77;14.37;;;;;;;0.14;100.00;97366.84;5030847;28;20476;-69
2022/11/27 06:36:00;;;;;;;30.57;11.27;;;;;;;0.14;100.00;97365.03;5024211;28;20471;-69
2022/11/27 06:38:26;;;;;;;44.77;12.73;;;;;;;0.33;100.00;97396.78;5047261;28;20427;-69
2022/11/27 06:40:53;;;;;;;34.00;10.90;;;;;;;0.10;100.00;97383.91;5032276;28;20430;-69
2022/11/27 06:43:19;;;;;;;65.47;16.10;;;;;;;0.16;100.00;97381.16;5033993;28;20434;-69
2022/11/27 06:45:54;;;;;;;38.27;12.83;;;;;;;0.26;100.00;97396.13;5039595;28;20554;-69
2022/11/27 06:48:21;;;;;;;45.77;17.97;;;;;;;0.25;100.00;97402.38;5031665;28;20428;-69
2022/11/27 06:50:48;;;;;;;51.80;15.27;;;;;;;0.29;100.00;97395.69;5031724;28;20586;-69
2022/11/27 06:53:14;;;;;;;17.40;9.60;;;;;;;0.04;100.00;97403.81;5030360;28;20429;-69
2022/11/27 06:55:41;;;;;;;13.67;8.27;;;;;;;0.10;100.00;97399.50;5014074;28;20442;-69
2022/11/27 06:58:08;;;;;;;25.30;9.90;;;;;;;-0.03;100.00;97392.75;5031962;28;20433;-69
2022/11/27 07:00:34;;;;;;;19.33;8.87;;;;;;;-0.09;100.00;97365.09;5014108;28;20806;-69
2022/11/27 07:03:01;;;;;;;18.03;9.83;;;;;;;0.17;100.00;97392.34;5031541;28;20480;-69
2022/11/27 07:05:28;;;;;;;32.60;21.73;;;;;;;-0.15;100.00;97353.81;5031468;28;20497;-69
2022/11/27 07:07:56;;;;;;;21.77;11.33;;;;;;;0.12;100.00;97407.84;5019001;28;20537;-69
2022/11/27 07:10:23;;;;;;;13.40;8.03;;;;;;;-0.12;100.00;97387.16;5037653;28;20446;-69
2022/11/27 07:12:50;;;;;;;38.23;20.17;;;;;;;0.09;100.00;97411.72;5030104;28;20464;-69
2022/11/27 07:15:16;;;;;;;35.40;12.07;;;;;;;-0.09;100.00;97396.28;5031175;28;20429;-69
2022/11/27 07:17:43;;;;;;;27.40;14.87;;;;;;;0.16;100.00;97411.59;5035605;28;20486;-69
2022/11/27 07:20:10;;;;;;;12.63;7.03;;;;;;;0.07;100.00;97416.34;5037685;28;20974;-69
2022/11/27 07:22:36;;;;;;;20.30;10.27;;;;;;;-0.20;100.00;97366.72;5044725;28;20800;-69
2022/11/27 07:25:03;;;;;;;16.20;8.43;;;;;;;0.19;100.00;97405.91;5013616;28;20475;-69
2022/11/27 07:27:30;;;;;;;19.77;10.40;;;;;;;0.14;100.00;97385.03;5029900;28;20504;-69
2022/11/27 07:29:57;;;;;;;15.20;10.87;;;;;;;0.14;100.00;97400.63;5029606;28;20488;-69
2022/11/27 07:32:23;;;;;;;9.60;6.80;;;;;;;0.19;100.00;97390.31;5006462;28;20465;-69
2022/11/27 07:34:50;;;;;;;14.90;12.53;;;;;;;0.17;100.00;97387.94;5026021;28;20429;-69
2022/11/27 07:37:17;;;;;;;19.37;9.80;;;;;;;0.04;100.00;97364.03;5025992;28;20437;-69
2022/11/27 07:39:43;;;;;;;12.57;6.60;;;;;;;-0.01;100.00;97338.72;5031019;28;20545;-69
2022/11/27 07:42:28;;;;;;;33.07;21.93;;;;;;;0.03;100.00;97359.88;5029910;28;20430;-69
2022/11/27 07:45:07;;;;;;;11.57;6.80;;;;;;;0.21;100.00;97375.25;5043122;28;20552;-69
2022/11/27 07:47:34;;;;;;;10.77;8.87;;;;;;;-0.04;100.00;97344.41;5043265;28;20905;-69
2022/11/27 07:50:01;;;;;;;12.40;9.83;;;;;;;0.01;100.00;97341.13;5030530;28;20450;-69
2022/11/27 07:52:28;;;;;;;10.77;8.03;;;;;;;0.16;100.00;97344.78;5013394;28;20442;-69
2022/11/27 07:54:55;;;;;;;11.90;8.93;;;;;;;0.17;100.00;97341.16;5043014;28;20550;-69
2022/11/27 07:57:21;;;;;;;11.43;8.90;;;;;;;0.40;100.00;97368.03;5041630;28;20817;-71
2022/11/27 07:59:48;;;;;;;12.27;7.50;;;;;;;0.23;100.00;97342.00;5053789;28;20792;-70
2022/11/27 08:02:17;;;;;;;10.93;8.00;;;;;;;0.47;100.00;97369.47;5037204;28;20436;-70
2022/11/27 08:04:43;;;;;;;10.73;7.67;;;;;;;0.29;100.00;97356.69;5053091;28;20556;-70
2022/11/27 08:07:10;;;;;;;9.47;6.90;;;;;;;0.32;100.00;97343.22;5053517;28;20835;-70
2022/11/27 08:09:38;;;;;;;9.00;7.10;;;;;;;0.04;100.00;97318.03;5053756;28;20465;-70
2022/11/27 08:12:06;;;;;;;9.67;7.57;;;;;;;0.26;100.00;97357.13;5054460;28;20425;-69
2022/11/27 08:14:33;;;;;;;11.50;6.90;;;;;;;0.17;100.00;97355.97;5053256;28;20433;-69
2022/11/27 08:16:59;;;;;;;15.40;7.77;;;;;;;0.22;100.00;97348.22;5053072;28;20491;-69
2022/11/27 08:19:26;;;;;;;13.40;6.00;;;;;;;0.29;100.00;97361.88;5052988;28;20460;-69
2022/11/27 08:21:55;;;;;;;17.40;8.63;;;;;;;0.24;100.00;97343.59;5052812;28;20945;-69
2022/11/27 08:24:21;;;;;;;219.63;124.57;;;;;;;-0.02;100.00;97314.53;5053151;28;21003;-70
2022/11/27 08:26:48;;;;;;;27.37;17.20;;;;;;;0.11;100.00;97336.06;5052901;28;20548;-70
2022/11/27 08:29:14;;;;;;;12.33;6.27;;;;;;;0.31;100.00;97359.84;5038709;28;20457;-69
2022/11/27 08:31:41;;;;;;;12.10;8.80;;;;;;;0.17;100.00;97337.75;5016376;28;20485;-69
2022/11/27 08:34:08;;;;;;;12.87;7.53;;;;;;;0.23;100.00;97370.59;5032973;28;20939;-69
2022/11/27 08:36:34;;;;;;;13.07;7.97;;;;;;;-0.02;100.00;97330.13;5054250;28;20504;-69
2022/11/27 08:39:01;;;;;;;9.77;6.67;;;;;;;0.27;100.00;97369.94;5049958;28;20454;-69
2022/11/27 08:41:27;;;;;;;9.63;6.87;;;;;;;0.04;100.00;97369.25;5019640;28;20438;-69
2022/11/27 08:43:54;;;;;;;8.80;6.90;;;;;;;-0.16;100.00;97348.84;5016973;28;20533;-69
2022/11/27 08:46:21;;;;;;;13.40;7.67;;;;;;;0.08;100.00;97360.72;5032972;28;20450;-69
2022/11/27 08:48:47;;;;;;;11.80;8.13;;;;;;;0.17;100.00;97369.75;5032528;28;20462;-69
2022/11/27 08:51:15;;;;;;;14.50;7.30;;;;;;;-0.09;100.00;97326.91;5032508;28;20438;-69
2022/11/27 08:53:44;;;;;;;11.20;6.80;;;;;;;-0.20;100.00;97325.16;5036617;28;20430;-69
2022/11/27 08:56:16;;;;;;;10.20;7.30;;;;;;;-0.02;100.00;97353.53;5040992;28;20428;-69
2022/11/27 08:58:43;;;;;;;13.17;8.30;;;;;;;0.01;100.00;97335.91;5032406;28;20874;-69
2022/11/27 09:01:14;;;;;;;15.00;7.40;;;;;;;-0.03;100.00;97317.38;5016055;28;20442;-69
2022/11/27 09:03:41;;;;;;;12.33;7.40;;;;;;;-0.09;100.00;97307.94;5033771;28;20780;-69
2022/11/27 09:06:11;;;;;;;8.70;6.40;;;;;;;-0.10;100.00;97296.75;5015811;28;20497;-69
2022/11/27 09:08:39;;;;;;;9.00;6.50;;;;;;;0.11;100.00;97336.06;5033380;28;20454;-69
2022/11/27 09:11:06;;;;;;;11.53;8.73;;;;;;;0.26;100.00;97331.91;5032224;28;20438;-69
2022/11/27 09:13:35;;;;;;;8.80;7.00;;;;;;;0.16;100.00;97336.97;5032158;28;20433;-69
2022/11/27 09:16:04;;;;;;;8.37;7.20;;;;;;;0.21;100.00;97341.47;5033325;28;20431;-69
2022/11/27 09:18:31;;;;;;;10.57;7.13;;;;;;;0.12;100.00;97346.25;5032048;28;20430;-69
2022/11/27 09:21:03;;;;;;;9.60;6.70;;;;;;;0.07;100.00;97335.75;5031983;28;20836;-69
2022/11/27 09:23:30;;;;;;;8.10;6.50;;;;;;;0.19;100.00;97341.69;5033290;28;20427;-69
2022/11/27 09:26:02;;;;;;;10.63;7.10;;;;;;;0.19;100.00;97330.50;5032400;28;20494;-69
2022/11/27 09:28:29;;;;;;;13.80;7.80;;;;;;;0.44;100.00;97338.72;5032850;28;20429;-69
2022/11/27 09:30:59;;;;;;;42.10;38.93;;;;;;;0.56;100.00;97341.25;5033393;28;20433;-69
2022/11/27 09:33:27;;;;;;;12.63;8.63;;;;;;;0.40;100.00;97353.25;5032953;28;20769;-69
2022/11/27 09:35:54;;;;;;;7.97;7.17;;;;;;;0.26;100.00;97320.72;5037953;28;20421;-69
2022/11/27 09:38:22;;;;;;;8.83;6.90;;;;;;;0.33;100.00;97331.78;5037073;28;20472;-69
2022/11/27 09:40:59;;;;;;;10.40;7.23;;;;;;;0.40;100.00;97336.81;5033080;28;20497;-69
2022/11/27 09:43:33;;;;;;;11.70;7.67;;;;;;;0.31;100.00;97301.84;5031730;28;20522;-69
2022/11/27 09:46:08;;;;;;;7.63;6.80;;;;;;;0.37;100.00;97293.88;5031514;28;20450;-69
2022/11/27 09:48:41;;;;;;;10.73;6.90;;;;;;;0.72;100.00;97329.25;5031720;28;20458;-69
2022/11/27 09:51:18;;;;;;;9.23;6.00;;;;;;;0.76;100.00;97328.53;5031433;28;20480;-69
2022/11/27 09:53:49;;;;;;;8.43;6.70;;;;;;;0.75;100.00;97329.56;5032628;28;20513;-69
2022/11/27 09:56:17;;;;;;;7.47;5.73;;;;;;;0.57;100.00;97303.81;5032670;28;20422;-69
2022/11/27 09:58:54;;;;;;;10.50;6.10;;;;;;;0.49;100.00;97314.59;5043184;28;20449;-69
2022/11/27 10:01:30;;;;;;;9.90;8.40;;;;;;;0.54;100.00;97314.69;5034696;28;20441;-71
2022/11/27 10:04:14;;;;;;;9.37;7.03;;;;;;;0.64;100.00;97312.22;5051425;28;20787;-68
2022/11/27 10:06:46;;;;;;;10.50;6.43;;;;;;;0.38;100.00;97313.63;5050894;28;20500;-69
2022/11/27 10:09:13;;;;;;;11.23;6.10;;;;;;;0.33;100.00;97304.97;5050770;28;20908;-69
2022/11/27 10:11:43;;;;;;;10.63;7.40;;;;;;;0.38;100.00;97307.66;5034389;28;20560;-68
2022/11/27 10:14:31;;;;;;;7.53;6.67;;;;;;;0.46;100.00;97300.25;5051145;28;20436;-69
2022/11/27 10:17:14;;;;;;;7.73;6.10;;;;;;;0.55;100.00;97304.03;5052346;28;20402;-69
2022/11/27 10:19:50;;;;;;;9.07;7.90;;;;;;;0.64;100.00;97306.22;5011425;28;21081;-69
2022/11/27 10:22:44;;;;;;;9.23;8.23;;;;;;;0.77;100.00;97305.91;5030612;28;20536;-69
2022/11/27 10:25:19;;;;;;;9.93;8.90;;;;;;;0.65;100.00;97277.38;5038042;28;20445;-68
2022/11/27 10:27:58;;;;;;;8.60;6.80;;;;;;;0.91;100.00;97309.75;5039153;28;20535;-69
2022/11/27 10:30:25;;;;;;;7.70;6.77;;;;;;;0.88;100.00;97298.00;5011716;28;20462;-69
2022/11/27 10:32:56;;;;;;;11.70;8.40;;;;;;;0.78;100.00;97300.44;5030806;28;20433;-70
2022/11/27 10:35:26;;;;;;;9.43;7.27;;;;;;;0.59;100.00;97279.13;5014329;28;20545;-70
2022/11/27 10:38:23;;;;;;;10.23;6.57;;;;;;;0.80;100.00;97290.63;5032016;28;21045;-69
2022/11/27 10:40:53;;;;;;;9.13;7.60;;;;;;;0.68;100.00;97283.94;5012872;28;20530;-69
2022/11/27 10:43:23;;;;;;;12.70;9.07;;;;;;;0.85;100.00;97272.44;5029922;28;20524;-69
2022/11/27 10:46:26;;;;;;;9.20;8.20;;;;;;;0.88;100.00;97266.75;5050286;28;20456;-69
2022/11/27 10:48:53;;;;;;;11.40;8.20;;;;;;;0.58;100.00;97219.53;5020681;28;20825;-70
2022/11/27 10:51:35;;;;;;;9.80;7.47;;;;;;;0.65;100.00;97255.75;5031667;28;20789;-69
2022/11/27 10:54:06;;;;;;;8.17;6.73;;;;;;;0.57;100.00;97254.38;5030459;28;20453;-69
2022/11/27 10:56:45;;;;;;;12.87;7.93;;;;;;;0.68;100.00;97232.66;5030422;28;20434;-69
2022/11/27 10:59:21;;;;;;;9.57;7.60;;;;;;;0.67;100.00;97243.28;5030313;28;20450;-69
2022/11/27 11:01:54;;;;;;;14.97;8.20;;;;;;;0.77;100.00;97252.03;5022229;28;20454;-69
2022/11/27 11:04:25;;;;;;;10.40;7.40;;;;;;;0.85;100.00;97248.25;5034058;28;20954;-69
2022/11/27 11:07:24;;;;;;;12.13;8.43;;;;;;;0.80;100.00;97240.34;5030316;28;20884;-69
2022/11/27 11:09:52;;;;;;;10.67;8.20;;;;;;;0.82;100.00;97238.31;5010357;28;20461;-69
2022/11/27 11:12:21;;;;;;;9.93;8.10;;;;;;;0.82;100.00;97212.28;5025108;28;20426;-69
2022/11/27 11:14:55;;;;;;;13.23;7.50;;;;;;;0.95;100.00;97235.38;5031255;28;20426;-69
2022/11/27 11:17:29;;;;;;;11.60;8.67;;;;;;;0.82;100.00;97207.88;5046670;28;20510;-69
2022/11/27 11:19:56;;;;;;;9.50;7.70;;;;;;;0.87;100.00;97225.34;5038636;28;20462;-69
2022/11/27 11:22:23;;;;;;;10.63;7.80;;;;;;;0.57;100.00;97184.91;5031127;28;20479;-69
2022/11/27 11:24:52;;;;;;;10.50;6.37;;;;;;;0.86;100.00;97226.38;5029888;28;20878;-69
2022/11/27 11:27:31;;;;;;;6.77;5.70;;;;;;;0.75;100.00;97209.06;5026688;28;20470;-69
2022/11/27 11:30:00;;;;;;;8.80;6.63;;;;;;;0.82;100.00;97209.69;5013323;28;20456;-69
2022/11/27 11:32:39;;;;;;;8.73;7.07;;;;;;;0.77;100.00;97202.59;5031350;28;20451;-70
2022/11/27 11:35:31;;;;;;;11.60;8.50;;;;;;;1.06;100.00;97218.81;5048667;28;20433;-69
2022/11/27 11:37:58;;;;;;;9.70;8.40;;;;;;;0.98;100.00;97224.47;5039632;28;20567;-69
2022/11/27 11:40:26;;;;;;;9.27;7.20;;;;;;;1.00;100.00;97222.38;5040349;28;20448;-71